Time;durP1;ratioP1;P1;durP2;ratioP2;P2;SDS_P1;SDS_P2;PMS_P1;PMS_P2;Temp;Humidity;BMP_temperature;BMP_pressure;BME280_temperature;BME280_humidity;BME280_pressure;Samples;Min_cycle;Max_cycle;Signal;HPM_P1;HPM_P2
2020/12/24 00:00:30;;;;;;;51.93;26.33;;;4.50;99.90;;;;;;5072398;28;20209;-73
2020/12/24 00:02:56;;;;;;;51.63;27.10;;;4.50;99.90;;;;;;5077785;28;20227;-73
2020/12/24 00:05:23;;;;;;;44.10;24.63;;;4.50;99.90;;;;;;5077878;28;20260;-73
2020/12/24 00:07:50;;;;;;;55.27;25.73;;;4.50;99.90;;;;;;5084445;28;20224;-71
2020/12/24 00:10:16;;;;;;;59.43;26.50;;;4.50;99.90;;;;;;5073003;28;20296;-73
2020/12/24 00:12:44;;;;;;;46.83;25.13;;;4.50;99.90;;;;;;5072551;28;20260;-73
2020/12/24 00:15:10;;;;;;;52.37;24.40;;;4.50;99.90;;;;;;5080389;28;20212;-73
2020/12/24 00:17:37;;;;;;;61.33;26.53;;;4.50;99.90;;;;;;5083238;28;20200;-72
2020/12/24 00:20:05;;;;;;;58.03;26.57;;;4.50;99.90;;;;;;5083632;28;20200;-72
2020/12/24 00:22:32;;;;;;;51.27;26.63;;;4.50;99.90;;;;;;5079362;28;20672;-73
2020/12/24 00:24:58;;;;;;;60.90;25.63;;;4.50;99.90;;;;;;5079030;28;20223;-73
2020/12/24 00:27:25;;;;;;;50.90;25.43;;;4.50;99.90;;;;;;5079931;28;20228;-73
2020/12/24 00:29:52;;;;;;;51.63;25.80;;;4.50;99.90;;;;;;5086157;28;20216;-72
2020/12/24 00:32:19;;;;;;;55.60;27.07;;;4.50;99.90;;;;;;5075126;28;20216;-72
2020/12/24 00:34:45;;;;;;;51.73;25.83;;;4.50;99.90;;;;;;5081827;28;20216;-72
2020/12/24 00:37:12;;;;;;;53.50;26.73;;;4.50;99.90;;;;;;5079507;28;20215;-73
2020/12/24 00:39:39;;;;;;;55.60;25.77;;;4.50;99.90;;;;;;5082154;28;20289;-72
2020/12/24 00:42:05;;;;;;;52.87;25.13;;;4.50;99.90;;;;;;5084894;28;20296;-73
2020/12/24 00:44:31;;;;;;;59.67;26.77;;;4.50;99.90;;;;;;5079280;28;20205;-72
2020/12/24 00:46:59;;;;;;;51.90;24.20;;;4.50;99.90;;;;;;5076574;28;20278;-72
2020/12/24 00:49:25;;;;;;;57.97;25.80;;;4.50;99.90;;;;;;5077824;28;20233;-73
2020/12/24 00:51:51;;;;;;;51.67;23.27;;;4.50;99.90;;;;;;5080904;28;20698;-73
2020/12/24 00:54:18;;;;;;;55.00;25.40;;;4.50;99.90;;;;;;5085140;28;20300;-73
2020/12/24 00:56:44;;;;;;;48.93;23.40;;;4.50;99.90;;;;;;5083011;28;20197;-74
2020/12/24 00:59:10;;;;;;;50.10;24.87;;;4.50;99.90;;;;;;5081960;28;20201;-73
2020/12/24 01:01:37;;;;;;;46.23;24.07;;;4.50;99.90;;;;;;5082598;28;20683;-73
2020/12/24 01:04:04;;;;;;;48.33;22.23;;;4.60;99.90;;;;;;5079725;28;20649;-72
2020/12/24 01:06:30;;;;;;;46.83;22.27;;;4.60;99.90;;;;;;5086008;28;20323;-72
2020/12/24 01:08:57;;;;;;;51.77;24.30;;;4.60;99.90;;;;;;5082024;28;20207;-73
2020/12/24 01:11:26;;;;;;;48.17;22.73;;;4.70;99.90;;;;;;5076093;28;20738;-72
2020/12/24 01:13:53;;;;;;;42.47;20.90;;;4.70;99.90;;;;;;5083052;28;20209;-73
2020/12/24 01:16:19;;;;;;;45.37;23.80;;;4.70;99.90;;;;;;5082146;28;20295;-74
2020/12/24 01:18:46;;;;;;;48.97;21.60;;;4.70;99.90;;;;;;5087644;28;20216;-72
2020/12/24 01:21:13;;;;;;;34.43;19.50;;;4.70;99.90;;;;;;5080800;28;20220;-73
2020/12/24 01:23:40;;;;;;;38.63;20.43;;;4.70;99.90;;;;;;5078204;28;20695;-73
2020/12/24 01:26:06;;;;;;;39.07;20.17;;;4.80;99.90;;;;;;5078885;28;20541;-74
2020/12/24 01:28:33;;;;;;;38.97;20.57;;;4.80;99.90;;;;;;5079266;28;20650;-73
2020/12/24 01:30:59;;;;;;;34.83;18.37;;;4.80;99.90;;;;;;5076610;28;20306;-73
2020/12/24 01:33:26;;;;;;;30.33;17.97;;;4.80;99.90;;;;;;5079639;28;20654;-74
2020/12/24 01:35:53;;;;;;;31.27;18.17;;;4.80;99.90;;;;;;5083774;28;20212;-72
2020/12/24 01:38:20;;;;;;;28.60;16.97;;;4.90;99.90;;;;;;5076422;28;20295;-73
2020/12/24 01:40:47;;;;;;;31.87;15.87;;;4.90;99.90;;;;;;5078369;28;20205;-73
2020/12/24 01:43:13;;;;;;;29.60;15.67;;;4.90;99.90;;;;;;5078302;28;20304;-73
2020/12/24 01:45:40;;;;;;;29.80;14.77;;;5.00;99.90;;;;;;5075263;28;20205;-73
2020/12/24 01:48:06;;;;;;;29.17;14.40;;;5.00;99.90;;;;;;5074024;28;20307;-73
2020/12/24 01:50:33;;;;;;;23.50;14.03;;;5.00;99.90;;;;;;5076055;28;20289;-73
2020/12/24 01:53:00;;;;;;;30.93;15.57;;;5.10;99.90;;;;;;5077695;28;20296;-73
2020/12/24 01:55:27;;;;;;;27.67;14.77;;;5.10;99.90;;;;;;5089208;28;20212;-73
2020/12/24 01:57:54;;;;;;;25.00;14.13;;;5.20;99.90;;;;;;5079757;28;20579;-73
2020/12/24 02:00:21;;;;;;;24.67;14.37;;;5.20;99.90;;;;;;5077598;28;20665;-73
2020/12/24 02:02:47;;;;;;;25.60;14.17;;;5.20;99.90;;;;;;5078446;28;20231;-73
2020/12/24 02:05:14;;;;;;;23.63;14.03;;;5.30;99.90;;;;;;5078142;28;20236;-73
2020/12/24 02:07:40;;;;;;;25.83;14.40;;;5.30;99.90;;;;;;5075338;28;20603;-72
2020/12/24 02:10:06;;;;;;;19.93;13.13;;;5.30;99.90;;;;;;5080515;28;20205;-72
2020/12/24 02:12:34;;;;;;;23.83;13.13;;;5.30;99.90;;;;;;5079891;28;20221;-72
2020/12/24 02:15:00;;;;;;;19.63;12.03;;;5.40;99.90;;;;;;5075153;28;20612;-72
2020/12/24 02:17:26;;;;;;;21.27;12.50;;;5.40;99.90;;;;;;5075995;28;20288;-75
2020/12/24 02:19:53;;;;;;;21.67;12.43;;;5.50;99.90;;;;;;5081791;28;20571;-74
2020/12/24 02:22:20;;;;;;;17.90;11.57;;;5.50;99.90;;;;;;5074989;28;20271;-73
2020/12/24 02:24:47;;;;;;;22.57;11.40;;;5.60;99.90;;;;;;5077289;28;20215;-73
2020/12/24 02:27:13;;;;;;;25.33;13.20;;;5.50;99.90;;;;;;5087105;28;20225;-74
2020/12/24 02:29:39;;;;;;;19.67;11.10;;;5.60;99.90;;;;;;5085555;28;20659;-73
2020/12/24 02:32:06;;;;;;;22.97;12.57;;;5.60;99.90;;;;;;5079235;28;20213;-74
2020/12/24 02:34:32;;;;;;;19.70;11.90;;;5.60;99.90;;;;;;5080910;28;20265;-74
2020/12/24 02:36:58;;;;;;;21.40;11.73;;;5.60;99.90;;;;;;5080990;28;20664;-74
2020/12/24 02:39:26;;;;;;;22.40;12.63;;;5.60;99.90;;;;;;5077131;28;20209;-74
2020/12/24 02:41:52;;;;;;;19.30;11.10;;;5.70;99.90;;;;;;5079851;28;20225;-73
2020/12/24 02:44:19;;;;;;;21.20;12.67;;;5.70;99.90;;;;;;5078548;28;20259;-72
2020/12/24 02:46:45;;;;;;;21.17;12.33;;;5.60;99.90;;;;;;5079648;28;20229;-73
2020/12/24 02:49:11;;;;;;;20.03;11.80;;;5.70;99.90;;;;;;5075070;28;20224;-74
2020/12/24 02:51:38;;;;;;;19.37;12.43;;;5.70;99.90;;;;;;5077050;28;20201;-74
2020/12/24 02:54:04;;;;;;;18.63;11.77;;;5.70;99.90;;;;;;5080856;28;20696;-75
2020/12/24 02:56:31;;;;;;;19.90;11.23;;;5.70;99.90;;;;;;5078115;28;20204;-76
2020/12/24 02:58:58;;;;;;;18.73;11.73;;;5.70;99.90;;;;;;5079551;28;20208;-75
2020/12/24 03:01:24;;;;;;;17.83;11.57;;;5.70;99.90;;;;;;5080028;28;20211;-76
2020/12/24 03:03:51;;;;;;;19.17;11.57;;;5.80;99.90;;;;;;5082489;28;20205;-76
2020/12/24 03:06:17;;;;;;;15.90;10.07;;;5.80;99.90;;;;;;5080301;28;20236;-73
2020/12/24 03:08:43;;;;;;;18.80;10.53;;;5.80;99.90;;;;;;5077123;28;20650;-73
2020/12/24 03:11:10;;;;;;;16.40;10.20;;;5.80;99.90;;;;;;5074622;28;20216;-73
2020/12/24 03:13:37;;;;;;;18.13;10.00;;;5.80;99.90;;;;;;5073414;28;20201;-75
2020/12/24 03:16:03;;;;;;;15.17;9.67;;;5.80;99.90;;;;;;5072944;28;20220;-73
2020/12/24 03:18:29;;;;;;;14.07;10.00;;;5.80;99.90;;;;;;5075779;28;20204;-74
2020/12/24 03:20:56;;;;;;;14.83;9.70;;;5.80;99.90;;;;;;5077875;28;20208;-73
2020/12/24 03:23:22;;;;;;;13.53;8.90;;;5.80;99.90;;;;;;5076064;28;20200;-74
2020/12/24 03:25:49;;;;;;;13.67;9.53;;;5.80;99.90;;;;;;5078370;28;20320;-74
2020/12/24 03:28:15;;;;;;;11.57;8.07;;;5.80;99.90;;;;;;5073117;28;20753;-73
2020/12/24 03:30:42;;;;;;;13.10;8.20;;;5.80;99.90;;;;;;5075908;28;20649;-74
2020/12/24 03:33:09;;;;;;;9.97;7.87;;;5.70;99.90;;;;;;5074120;28;20819;-75
2020/12/24 03:35:35;;;;;;;13.53;8.93;;;5.80;99.90;;;;;;5073372;28;20197;-74
2020/12/24 03:38:02;;;;;;;11.03;8.07;;;5.80;99.90;;;;;;5075211;28;20200;-74
2020/12/24 03:40:28;;;;;;;8.73;6.67;;;5.80;99.90;;;;;;5074276;28;20567;-75
2020/12/24 03:42:54;;;;;;;11.23;7.23;;;5.80;99.90;;;;;;5077765;28;20207;-73
2020/12/24 03:45:21;;;;;;;12.23;7.63;;;5.70;99.90;;;;;;5077582;28;20622;-74
2020/12/24 03:47:49;;;;;;;9.93;7.00;;;5.70;99.90;;;;;;5072108;28;20616;-74
2020/12/24 03:50:15;;;;;;;6.70;5.90;;;5.70;99.90;;;;;;5076715;28;20292;-74
2020/12/24 03:52:41;;;;;;;7.10;6.13;;;5.80;99.90;;;;;;5079458;28;20321;-74
2020/12/24 03:55:08;;;;;;;9.17;6.40;;;5.80;99.90;;;;;;5079805;28;20256;-74
2020/12/24 03:57:34;;;;;;;7.90;5.87;;;5.80;99.90;;;;;;5074657;28;20543;-74
2020/12/24 04:00:00;;;;;;;7.33;5.77;;;5.80;99.90;;;;;;5078205;28;20687;-74
2020/12/24 04:02:27;;;;;;;8.00;6.13;;;5.80;99.90;;;;;;5076399;28;20730;-74
2020/12/24 04:04:54;;;;;;;7.37;5.57;;;5.80;99.90;;;;;;5076099;28;20777;-75
2020/12/24 04:07:20;;;;;;;10.50;6.67;;;5.80;99.90;;;;;;5079179;28;20281;-73
2020/12/24 04:09:47;;;;;;;8.77;6.07;;;5.80;99.90;;;;;;5080926;28;20205;-74
2020/12/24 04:12:13;;;;;;;8.40;6.03;;;5.80;99.90;;;;;;5080132;28;20311;-74
2020/12/24 04:14:39;;;;;;;7.23;5.90;;;5.90;99.90;;;;;;5076925;28;20209;-74
2020/12/24 04:17:06;;;;;;;8.80;6.47;;;5.90;99.90;;;;;;5072147;28;20292;-73
2020/12/24 04:19:32;;;;;;;8.50;6.50;;;5.90;99.90;;;;;;5075475;28;20370;-72
2020/12/24 04:21:59;;;;;;;8.00;5.77;;;5.90;99.90;;;;;;5077606;28;20205;-74
2020/12/24 04:24:26;;;;;;;9.97;6.53;;;5.90;99.90;;;;;;5075213;28;20642;-74
2020/12/24 04:26:55;;;;;;;9.30;6.60;;;6.00;99.90;;;;;;5074766;28;20694;-74
2020/12/24 04:29:21;;;;;;;8.73;6.30;;;6.00;99.90;;;;;;5077368;28;20205;-74
2020/12/24 04:31:48;;;;;;;9.47;6.53;;;5.90;99.90;;;;;;5077048;28;20636;-74
2020/12/24 04:34:14;;;;;;;8.63;6.40;;;6.00;99.90;;;;;;5075650;28;20613;-73
2020/12/24 04:36:40;;;;;;;8.03;6.03;;;6.00;99.90;;;;;;5082560;28;20204;-73
2020/12/24 04:39:08;;;;;;;7.20;6.10;;;6.00;99.90;;;;;;5075510;28;20293;-73
2020/12/24 04:41:35;;;;;;;8.20;6.00;;;6.00;99.90;;;;;;5076805;28;20236;-75
2020/12/24 04:44:02;;;;;;;7.50;6.20;;;6.00;99.90;;;;;;5079080;28;20200;-73
2020/12/24 04:46:29;;;;;;;8.47;6.30;;;6.00;99.90;;;;;;5073628;28;20209;-72
2020/12/24 04:48:58;;;;;;;9.70;6.83;;;6.10;99.90;;;;;;5077771;28;20212;-72
2020/12/24 04:51:25;;;;;;;8.97;6.87;;;6.10;99.90;;;;;;5074780;28;20206;-73
2020/12/24 04:53:52;;;;;;;8.83;6.63;;;6.10;99.90;;;;;;5076934;28;20209;-73
2020/12/24 04:56:19;;;;;;;9.43;6.67;;;6.10;99.90;;;;;;5073840;28;20291;-73
2020/12/24 04:58:46;;;;;;;9.13;6.70;;;6.10;99.90;;;;;;5079967;28;20211;-75
2020/12/24 05:01:15;;;;;;;9.30;6.20;;;6.10;99.90;;;;;;5082569;28;20204;-75
2020/12/24 05:03:41;;;;;;;9.27;6.97;;;6.10;99.90;;;;;;5077406;28;20343;-73
2020/12/24 05:06:14;;;;;;;8.30;6.70;;;6.20;99.90;;;;;;5082016;28;20254;-73
2020/12/24 05:08:40;;;;;;;9.90;7.53;;;6.20;99.90;;;;;;5081467;28;20229;-73
2020/12/24 05:11:08;;;;;;;11.13;7.83;;;6.20;99.90;;;;;;5078765;28;20227;-74
2020/12/24 05:13:36;;;;;;;12.07;8.33;;;6.20;99.90;;;;;;5077733;28;20205;-72
2020/12/24 05:16:17;;;;;;;11.17;8.10;;;6.30;99.90;;;;;;5076920;28;20269;-74
2020/12/24 05:18:43;;;;;;;12.23;8.97;;;6.40;99.90;;;;;;5078448;28;20692;-74
2020/12/24 05:21:10;;;;;;;12.70;8.63;;;6.40;99.90;;;;;;5085092;28;20239;-73
2020/12/24 05:23:36;;;;;;;11.00;8.70;;;6.50;99.90;;;;;;5079028;28;20288;-73
2020/12/24 05:26:19;;;;;;;11.43;8.97;;;6.50;99.90;;;;;;5089748;28;20243;-74
2020/12/24 05:28:46;;;;;;;11.17;8.63;;;6.60;99.90;;;;;;5078848;28;20259;-74
2020/12/24 05:31:31;;;;;;;14.40;9.53;;;6.60;99.90;;;;;;5078968;28;20213;-73
2020/12/24 05:33:57;;;;;;;13.83;9.17;;;6.60;99.90;;;;;;5078494;28;20201;-74
2020/12/24 05:36:24;;;;;;;15.57;9.93;;;6.60;99.90;;;;;;5080267;28;20305;-74
2020/12/24 05:38:52;;;;;;;13.90;10.27;;;6.60;99.90;;;;;;5080366;28;20217;-74
2020/12/24 05:41:29;;;;;;;13.73;9.23;;;6.70;99.90;;;;;;5081127;28;20208;-73
2020/12/24 05:43:58;;;;;;;13.67;9.80;;;6.70;99.90;;;;;;5081760;28;20286;-73
2020/12/24 05:46:27;;;;;;;15.00;10.73;;;6.70;99.90;;;;;;5084723;28;20204;-74
2020/12/24 05:48:54;;;;;;;13.27;9.67;;;6.80;99.90;;;;;;5078915;28;20300;-73
2020/12/24 05:51:21;;;;;;;15.20;10.50;;;6.80;99.90;;;;;;5075263;28;20266;-73
2020/12/24 05:53:48;;;;;;;19.30;11.17;;;6.80;99.90;;;;;;5080783;28;20204;-73
2020/12/24 05:56:22;;;;;;;17.10;12.47;;;6.90;99.90;;;;;;5089591;28;20283;-73
2020/12/24 05:58:49;;;;;;;15.93;11.27;;;6.90;99.90;;;;;;5075230;28;20201;-73
2020/12/24 06:01:17;;;;;;;15.33;10.73;;;7.00;99.90;;;;;;5080607;28;20204;-73
2020/12/24 06:04:01;;;;;;;15.33;10.97;;;7.10;99.90;;;;;;5084617;28;20212;-73
2020/12/24 06:06:44;;;;;;;16.73;11.67;;;7.20;99.90;;;;;;5086700;28;20240;-72
2020/12/24 06:09:13;;;;;;;15.07;10.70;;;7.20;99.90;;;;;;5076848;28;20284;-73
2020/12/24 06:11:46;;;;;;;17.60;11.83;;;7.30;99.90;;;;;;5075297;28;20266;-74
2020/12/24 06:14:21;;;;;;;17.67;10.90;;;7.30;99.90;;;;;;5084049;28;20192;-75
2020/12/24 06:16:50;;;;;;;16.87;12.20;;;7.40;99.90;;;;;;5077362;28;20201;-75
2020/12/24 06:19:17;;;;;;;13.80;11.00;;;7.40;99.90;;;;;;5084714;28;20209;-74
2020/12/24 06:21:43;;;;;;;17.07;11.93;;;7.50;99.90;;;;;;5082734;28;20272;-74
2020/12/24 06:24:10;;;;;;;15.17;11.60;;;7.60;99.90;;;;;;5081850;28;20640;-74
2020/12/24 06:26:45;;;;;;;15.43;11.63;;;7.50;99.90;;;;;;5080467;28;20201;-73
2020/12/24 06:29:14;;;;;;;17.63;11.43;;;7.60;99.90;;;;;;5084264;28;20272;-73
2020/12/24 06:31:42;;;;;;;16.57;12.37;;;7.70;99.90;;;;;;5077568;28;20244;-72
2020/12/24 06:34:30;;;;;;;15.23;11.60;;;7.70;99.90;;;;;;5077286;28;20671;-73
2020/12/24 06:36:57;;;;;;;15.27;11.47;;;7.80;99.90;;;;;;5077377;28;20254;-73
2020/12/24 06:39:41;;;;;;;15.20;11.23;;;7.80;99.90;;;;;;5089749;28;20208;-74
2020/12/24 06:42:07;;;;;;;14.10;11.23;;;7.90;99.90;;;;;;5075907;28;20207;-74
2020/12/24 06:44:47;;;;;;;17.77;12.30;;;7.90;99.90;;;;;;5080988;28;20296;-75
2020/12/24 06:47:17;;;;;;;16.43;12.17;;;7.90;99.90;;;;;;5087131;28;20693;-74
2020/12/24 06:49:45;;;;;;;16.73;12.40;;;8.00;99.90;;;;;;5085957;28;20644;-74
2020/12/24 06:52:11;;;;;;;18.37;12.73;;;8.00;99.90;;;;;;5096229;28;20577;-75
2020/12/24 06:54:39;;;;;;;17.87;12.40;;;8.00;99.90;;;;;;5089199;28;20261;-75
2020/12/24 06:57:24;;;;;;;18.27;13.03;;;8.10;99.90;;;;;;5085226;28;20205;-77
2020/12/24 07:00:19;;;;;;;17.83;12.33;;;8.10;99.90;;;;;;5081190;28;20288;-76
2020/12/24 07:02:47;;;;;;;18.47;11.73;;;8.20;99.90;;;;;;5080317;28;20550;-76
2020/12/24 07:05:45;;;;;;;16.63;12.17;;;8.20;99.90;;;;;;5075644;28;20243;-75
2020/12/24 07:08:12;;;;;;;17.20;12.30;;;8.30;99.90;;;;;;5073796;28;20259;-75
2020/12/24 07:10:43;;;;;;;20.27;12.03;;;8.30;99.90;;;;;;5084224;28;20300;-75
2020/12/24 07:13:09;;;;;;;17.20;11.70;;;8.30;99.90;;;;;;5079452;28;20642;-75
2020/12/24 07:15:43;;;;;;;18.07;12.57;;;8.40;99.90;;;;;;5077550;28;20296;-75
2020/12/24 07:18:13;;;;;;;16.53;12.37;;;8.40;99.90;;;;;;5089875;28;20200;-76
2020/12/24 07:20:41;;;;;;;15.07;12.10;;;8.40;99.90;;;;;;5081978;28;20205;-75
2020/12/24 07:23:10;;;;;;;16.80;13.20;;;8.50;99.90;;;;;;5076225;28;20206;-75
2020/12/24 07:25:37;;;;;;;17.03;12.07;;;8.60;99.90;;;;;;5084492;28;20270;-77
2020/12/24 07:28:13;;;;;;;15.40;12.07;;;8.60;99.90;;;;;;5084150;28;20239;-77
2020/12/24 07:30:40;;;;;;;17.30;12.50;;;8.70;99.90;;;;;;5090249;28;20241;-76
2020/12/24 07:33:07;;;;;;;16.77;12.63;;;8.80;99.90;;;;;;5089415;28;20589;-75
2020/12/24 07:35:34;;;;;;;16.17;11.83;;;8.80;99.90;;;;;;5087623;28;20366;-77
2020/12/24 07:38:00;;;;;;;17.17;12.33;;;8.80;99.90;;;;;;5078648;28;20304;-76
2020/12/24 07:40:33;;;;;;;16.40;11.93;;;8.90;99.90;;;;;;5078766;28;20198;-76
2020/12/24 07:43:10;;;;;;;15.43;12.67;;;8.90;99.90;;;;;;5076672;28;20291;-76
2020/12/24 07:45:36;;;;;;;14.57;11.40;;;9.00;99.90;;;;;;5079367;28;20297;-76
2020/12/24 07:48:09;;;;;;;15.83;11.80;;;9.10;99.90;;;;;;5085849;28;20232;-75
2020/12/24 07:50:35;;;;;;;16.00;12.53;;;9.10;99.90;;;;;;5081518;28;20669;-77
2020/12/24 07:53:02;;;;;;;16.40;11.07;;;9.20;99.90;;;;;;5077924;28;20213;-76
2020/12/24 07:55:29;;;;;;;13.23;10.07;;;9.20;99.90;;;;;;5080322;28;20265;-77
2020/12/24 07:58:08;;;;;;;12.90;9.60;;;9.30;99.90;;;;;;5081655;28;20197;-76
2020/12/24 08:00:42;;;;;;;11.33;8.67;;;9.40;99.90;;;;;;5084048;28;20204;-76
2020/12/24 08:03:08;;;;;;;10.87;8.33;;;9.50;99.90;;;;;;5080932;28;20205;-76
2020/12/24 08:05:35;;;;;;;9.70;8.70;;;9.60;99.90;;;;;;5076888;28;20233;-74
2020/12/24 08:08:01;;;;;;;8.50;7.47;;;9.70;99.90;;;;;;5080708;28;20232;-70
2020/12/24 08:10:28;;;;;;;9.60;7.63;;;9.70;99.90;;;;;;5086888;28;20402;-72
2020/12/24 08:13:03;;;;;;;9.47;7.37;;;9.80;99.90;;;;;;5087034;28;20228;-71
2020/12/24 08:15:33;;;;;;;9.23;7.07;;;9.90;99.90;;;;;;5089510;28;20286;-72
2020/12/24 08:18:02;;;;;;;9.40;7.57;;;10.00;99.90;;;;;;5085334;28;20224;-74
2020/12/24 08:20:35;;;;;;;7.77;6.63;;;10.00;99.90;;;;;;5086642;28;20342;-74
2020/12/24 08:23:10;;;;;;;8.50;6.73;;;10.10;99.90;;;;;;5077752;28;20245;-73
2020/12/24 08:25:37;;;;;;;9.60;7.17;;;10.10;99.90;;;;;;5084800;28;20254;-73
2020/12/24 08:28:04;;;;;;;9.87;6.77;;;10.20;99.90;;;;;;5083687;28;20229;-73
2020/12/24 08:30:31;;;;;;;9.43;6.97;;;10.20;99.90;;;;;;5076444;28;20209;-74
2020/12/24 08:33:01;;;;;;;9.33;7.20;;;10.20;99.90;;;;;;5073284;28;20215;-72
2020/12/24 08:35:30;;;;;;;11.33;7.50;;;10.20;99.90;;;;;;5083770;28;20208;-71
2020/12/24 08:38:10;;;;;;;9.40;7.27;;;10.30;99.90;;;;;;5091282;28;20676;-72
2020/12/24 08:40:36;;;;;;;9.13;7.53;;;10.40;99.90;;;;;;5096512;28;20197;-72
2020/12/24 08:43:06;;;;;;;10.03;8.17;;;10.30;99.90;;;;;;5089897;28;20291;-73
2020/12/24 08:45:41;;;;;;;12.60;9.10;;;10.40;99.90;;;;;;5081548;28;20212;-71
2020/12/24 08:48:08;;;;;;;11.57;9.13;;;10.40;99.90;;;;;;5090316;28;20278;-71
2020/12/24 08:50:36;;;;;;;10.33;8.70;;;10.40;99.90;;;;;;5098608;28;20234;-71
2020/12/24 08:53:05;;;;;;;9.87;8.23;;;10.40;99.90;;;;;;5089935;28;20246;-71
2020/12/24 08:55:32;;;;;;;9.67;8.33;;;10.50;99.90;;;;;;5091568;28;20204;-72
2020/12/24 08:57:59;;;;;;;11.50;7.70;;;10.40;99.90;;;;;;5093848;28;20209;-72
2020/12/24 09:00:26;;;;;;;12.37;8.80;;;10.50;99.90;;;;;;5078880;28;20212;-70
2020/12/24 09:02:54;;;;;;;10.53;7.93;;;10.50;99.90;;;;;;5088108;28;20244;-71
2020/12/24 09:05:25;;;;;;;10.13;7.67;;;10.50;99.90;;;;;;5082069;28;20236;-72
2020/12/24 09:07:55;;;;;;;10.50;8.10;;;10.50;99.90;;;;;;5094534;28;20217;-76
2020/12/24 09:10:26;;;;;;;9.57;7.17;;;10.50;99.90;;;;;;5090455;28;20202;-72
2020/12/24 09:12:57;;;;;;;10.93;7.27;;;10.60;99.90;;;;;;5089458;28;20391;-71
2020/12/24 09:15:26;;;;;;;8.30;6.23;;;10.60;99.90;;;;;;5086521;28;20204;-75
2020/12/24 09:17:55;;;;;;;7.57;6.40;;;10.70;99.90;;;;;;5087347;28;20653;-72
2020/12/24 09:20:23;;;;;;;6.43;5.77;;;10.60;99.90;;;;;;5095198;28;20218;-71
2020/12/24 09:22:51;;;;;;;7.77;6.40;;;10.70;99.90;;;;;;5085984;28;20261;-71
2020/12/24 09:25:32;;;;;;;11.03;5.57;;;10.70;99.90;;;;;;5082965;28;20221;-73
2020/12/24 09:27:59;;;;;;;7.10;5.10;;;10.70;99.90;;;;;;5091181;28;20228;-77
2020/12/24 09:30:26;;;;;;;7.87;5.67;;;10.70;99.90;;;;;;5090257;28;20326;-74
2020/12/24 09:32:55;;;;;;;8.67;5.33;;;10.70;99.90;;;;;;5088185;28;20303;-75
2020/12/24 09:35:22;;;;;;;5.47;4.93;;;10.70;99.90;;;;;;5094794;28;20261;-71
2020/12/24 09:37:49;;;;;;;7.07;5.20;;;10.70;99.90;;;;;;5085903;28;20197;-71
2020/12/24 09:40:16;;;;;;;7.37;5.17;;;10.70;99.90;;;;;;5081424;28;20224;-73
2020/12/24 09:42:42;;;;;;;6.00;5.17;;;10.70;99.90;;;;;;5090955;28;20292;-72
2020/12/24 09:45:09;;;;;;;7.10;4.90;;;10.70;99.90;;;;;;5096857;28;20232;-75
2020/12/24 09:47:35;;;;;;;8.20;5.40;;;10.80;99.90;;;;;;5090802;28;20724;-72
2020/12/24 09:50:04;;;;;;;6.10;4.80;;;10.80;99.90;;;;;;5084905;28;20300;-72
2020/12/24 09:52:30;;;;;;;5.57;4.63;;;10.80;99.90;;;;;;5090851;28;20212;-72
2020/12/24 09:54:56;;;;;;;7.17;4.70;;;10.90;99.90;;;;;;5087161;28;20236;-73
2020/12/24 09:57:23;;;;;;;7.60;4.90;;;10.90;99.90;;;;;;5089464;28;20216;-72
2020/12/24 09:59:49;;;;;;;7.47;5.33;;;10.90;99.90;;;;;;5086864;28;20208;-72
2020/12/24 10:02:15;;;;;;;7.00;5.13;;;10.90;99.90;;;;;;5084576;28;20210;-73
2020/12/24 10:04:42;;;;;;;6.07;5.20;;;10.90;99.90;;;;;;5094965;28;20211;-71
2020/12/24 10:07:09;;;;;;;10.20;5.80;;;10.90;99.90;;;;;;5086728;28;20257;-72
2020/12/24 10:09:36;;;;;;;7.27;5.90;;;10.90;99.90;;;;;;5095738;28;20351;-72
2020/12/24 10:12:02;;;;;;;8.40;6.10;;;11.00;99.90;;;;;;5076456;28;20702;-71
2020/12/24 10:14:29;;;;;;;7.63;6.03;;;10.90;99.90;;;;;;5079441;28;20213;-71
2020/12/24 10:16:55;;;;;;;7.90;5.47;;;10.90;99.90;;;;;;5075919;28;20209;-73
2020/12/24 10:19:21;;;;;;;7.47;5.40;;;10.90;99.90;;;;;;5076488;28;20297;-71
2020/12/24 10:21:48;;;;;;;9.03;5.83;;;10.90;99.90;;;;;;5076123;28;20281;-73
2020/12/24 10:24:16;;;;;;;7.20;5.17;;;10.90;99.90;;;;;;5075047;28;20221;-72
2020/12/24 10:26:42;;;;;;;6.10;4.87;;;10.90;99.90;;;;;;5082737;28;20211;-71
2020/12/24 10:29:09;;;;;;;6.93;4.63;;;10.90;99.90;;;;;;5088004;28;20316;-71
2020/12/24 10:31:35;;;;;;;7.53;5.17;;;10.90;99.90;;;;;;5092603;28;20598;-73
2020/12/24 10:34:02;;;;;;;7.77;5.40;;;10.90;99.90;;;;;;5076380;28;20531;-72
2020/12/24 10:36:28;;;;;;;7.87;4.37;;;10.90;99.90;;;;;;5075819;28;20212;-72
2020/12/24 10:38:54;;;;;;;7.40;4.77;;;10.90;99.90;;;;;;5081860;28;20211;-72
2020/12/24 10:41:22;;;;;;;6.37;4.50;;;10.90;99.90;;;;;;5088670;28;20688;-73
2020/12/24 10:43:48;;;;;;;5.83;4.50;;;11.00;99.90;;;;;;5094099;28;20244;-71
2020/12/24 10:46:21;;;;;;;7.03;4.50;;;10.90;99.90;;;;;;5085670;28;20211;-72
2020/12/24 10:48:47;;;;;;;6.77;4.27;;;10.90;99.90;;;;;;5078210;28;20232;-72
2020/12/24 10:51:14;;;;;;;5.70;4.27;;;10.90;99.90;;;;;;5077691;28;20265;-72
2020/12/24 10:53:40;;;;;;;5.80;4.43;;;10.90;99.90;;;;;;5090211;28;20221;-72
2020/12/24 10:56:11;;;;;;;5.77;3.83;;;11.00;99.90;;;;;;5083500;28;20212;-72
2020/12/24 10:58:39;;;;;;;5.37;3.53;;;11.00;99.90;;;;;;5082931;28;20209;-71
2020/12/24 11:01:09;;;;;;;6.80;4.40;;;11.00;99.90;;;;;;5074545;28;20201;-77
2020/12/24 11:03:37;;;;;;;5.67;4.07;;;11.00;99.90;;;;;;5082794;28;20193;-73
2020/12/24 11:06:04;;;;;;;5.80;3.83;;;11.00;99.90;;;;;;5075563;28;20233;-74
2020/12/24 11:08:30;;;;;;;6.53;4.50;;;11.00;99.90;;;;;;5093493;28;20336;-74
2020/12/24 11:10:57;;;;;;;5.57;3.67;;;10.90;99.90;;;;;;5084534;28;20205;-72
2020/12/24 11:13:23;;;;;;;6.10;4.13;;;11.00;99.90;;;;;;5087252;28;20308;-71
2020/12/24 11:15:51;;;;;;;6.43;3.80;;;10.90;99.90;;;;;;5073532;28;20236;-71
2020/12/24 11:18:17;;;;;;;4.70;3.77;;;10.90;99.90;;;;;;5080198;28;20240;-71
2020/12/24 11:20:44;;;;;;;6.47;3.97;;;11.00;99.90;;;;;;5079914;28;20667;-71
2020/12/24 11:23:10;;;;;;;6.90;4.37;;;11.00;99.90;;;;;;5089085;28;20232;-72
2020/12/24 11:25:37;;;;;;;6.53;4.17;;;11.00;99.90;;;;;;5081493;28;20679;-71
2020/12/24 11:28:03;;;;;;;5.13;3.80;;;11.00;99.90;;;;;;5076859;28;20286;-74
2020/12/24 11:30:31;;;;;;;6.57;4.33;;;10.90;99.90;;;;;;5084613;28;20192;-73
2020/12/24 11:32:58;;;;;;;6.13;4.23;;;10.90;99.90;;;;;;5095587;28;20268;-74
2020/12/24 11:35:25;;;;;;;6.63;4.13;;;10.90;99.90;;;;;;5082162;28;20209;-73
2020/12/24 11:37:51;;;;;;;6.20;4.00;;;10.90;99.90;;;;;;5084107;28;20206;-77
2020/12/24 11:40:18;;;;;;;5.80;4.43;;;10.90;99.90;;;;;;5093686;28;20629;-73
2020/12/24 11:42:44;;;;;;;5.90;4.17;;;10.90;99.90;;;;;;5083521;28;20213;-74
2020/12/24 11:45:11;;;;;;;6.20;4.30;;;10.90;99.90;;;;;;5083624;28;20633;-75
2020/12/24 11:47:37;;;;;;;7.67;4.50;;;11.00;99.90;;;;;;5091054;28;20323;-72
2020/12/24 11:50:06;;;;;;;6.20;4.00;;;11.00;99.90;;;;;;5096550;28;20200;-74
2020/12/24 11:52:36;;;;;;;6.43;4.10;;;10.90;99.90;;;;;;5087617;28;20296;-75
2020/12/24 11:55:03;;;;;;;6.23;4.13;;;11.00;99.90;;;;;;5094499;28;20301;-74
2020/12/24 11:57:30;;;;;;;5.67;3.87;;;11.00;99.90;;;;;;5085375;28;20317;-76
2020/12/24 11:59:57;;;;;;;7.50;4.13;;;11.00;99.90;;;;;;5081462;28;20205;-76
2020/12/24 12:02:23;;;;;;;5.30;4.20;;;11.00;99.90;;;;;;5079838;28;20201;-77
2020/12/24 12:04:50;;;;;;;8.10;4.70;;;11.00;99.90;;;;;;5093364;28;20721;-77
2020/12/24 12:07:17;;;;;;;5.57;3.90;;;11.00;99.90;;;;;;5096752;28;20225;-77
2020/12/24 12:09:44;;;;;;;7.20;4.03;;;10.90;99.90;;;;;;5093262;28;20210;-78
2020/12/24 12:12:10;;;;;;;6.90;4.33;;;11.00;99.90;;;;;;5098247;28;20247;-77
2020/12/24 12:14:37;;;;;;;6.53;4.40;;;10.90;99.90;;;;;;5098241;28;20681;-78
2020/12/24 12:17:03;;;;;;;6.20;4.27;;;10.90;99.90;;;;;;5099968;28;20295;-77
2020/12/24 12:19:31;;;;;;;7.07;4.57;;;11.00;99.90;;;;;;5086451;28;20223;-76
2020/12/24 12:21:57;;;;;;;6.37;4.90;;;10.90;99.90;;;;;;5097935;28;20234;-75
2020/12/24 12:24:25;;;;;;;8.53;5.20;;;10.90;99.90;;;;;;5094561;28;20327;-76
2020/12/24 12:26:51;;;;;;;4.70;3.53;;;10.90;99.90;;;;;;5093800;28;20664;-76
2020/12/24 12:29:18;;;;;;;3.33;2.33;;;10.90;99.90;;;;;;5082176;28;20746;-73
2020/12/24 12:31:44;;;;;;;3.63;2.20;;;10.80;99.90;;;;;;5081720;28;20223;-74
2020/12/24 12:34:11;;;;;;;3.00;2.33;;;10.80;99.90;;;;;;5081942;28;20215;-74
2020/12/24 12:36:37;;;;;;;4.27;2.53;;;10.70;99.90;;;;;;5081158;28;20232;-74
2020/12/24 12:39:04;;;;;;;5.47;2.47;;;10.60;99.90;;;;;;5086334;28;20208;-77
2020/12/24 12:41:33;;;;;;;4.20;2.00;;;10.60;99.90;;;;;;5094878;28;20201;-78
2020/12/24 12:44:00;;;;;;;3.67;2.00;;;10.50;99.90;;;;;;5093896;28;20209;-77
2020/12/24 12:46:28;;;;;;;2.37;1.70;;;10.40;99.90;;;;;;5097455;28;20285;-73